sensor_id;sensor_type;location;lat;lon;timestamp;P1;durP1;ratioP1;P2;durP2;ratioP2
25922;SDS011;13725;51.170;4.442;2022-09-14T00:01:52;15.38;;;5.70;;
25922;SDS011;13725;51.170;4.442;2022-09-14T00:04:18;11.68;;;5.00;;
25922;SDS011;13725;51.170;4.442;2022-09-14T00:06:44;12.32;;;5.90;;
25922;SDS011;13725;51.170;4.442;2022-09-14T00:09:15;14.07;;;5.72;;
25922;SDS011;13725;51.170;4.442;2022-09-14T00:11:42;10.13;;;5.32;;
25922;SDS011;13725;51.170;4.442;2022-09-14T00:14:08;16.30;;;5.60;;
25922;SDS011;13725;51.170;4.442;2022-09-14T00:16:38;12.40;;;4.72;;
25922;SDS011;13725;51.170;4.442;2022-09-14T00:19:15;15.30;;;6.30;;
25922;SDS011;13725;51.170;4.442;2022-09-14T00:21:57;11.93;;;5.13;;
25922;SDS011;13725;51.170;4.442;2022-09-14T00:24:23;13.45;;;5.50;;
25922;SDS011;13725;51.170;4.442;2022-09-14T00:26:52;11.50;;;5.03;;
25922;SDS011;13725;51.170;4.442;2022-09-14T00:29:18;11.32;;;4.32;;
25922;SDS011;13725;51.170;4.442;2022-09-14T00:31:44;13.88;;;4.75;;
25922;SDS011;13725;51.170;4.442;2022-09-14T00:34:11;6.75;;;4.50;;
25922;SDS011;13725;51.170;4.442;2022-09-14T00:36:40;10.75;;;5.10;;
25922;SDS011;13725;51.170;4.442;2022-09-14T00:39:09;14.48;;;4.95;;
25922;SDS011;13725;51.170;4.442;2022-09-14T00:41:37;9.35;;;5.45;;
25922;SDS011;13725;51.170;4.442;2022-09-14T00:46:52;9.95;;;4.85;;
25922;SDS011;13725;51.170;4.442;2022-09-14T00:49:39;10.60;;;4.78;;
25922;SDS011;13725;51.170;4.442;2022-09-14T00:52:07;12.23;;;5.07;;
25922;SDS011;13725;51.170;4.442;2022-09-14T00:54:59;15.38;;;5.05;;
25922;SDS011;13725;51.170;4.442;2022-09-14T00:57:24;9.20;;;4.47;;
25922;SDS011;13725;51.170;4.442;2022-09-14T00:59:54;13.77;;;5.15;;
25922;SDS011;13725;51.170;4.442;2022-09-14T01:02:21;12.63;;;5.25;;
25922;SDS011;13725;51.170;4.442;2022-09-14T01:04:49;11.77;;;4.30;;
25922;SDS011;13725;51.170;4.442;2022-09-14T01:10:25;12.10;;;4.25;;
25922;SDS011;13725;51.170;4.442;2022-09-14T01:15:47;11.95;;;5.05;;
25922;SDS011;13725;51.170;4.442;2022-09-14T01:18:21;10.65;;;5.28;;
25922;SDS011;13725;51.170;4.442;2022-09-14T01:26:20;10.35;;;4.43;;
25922;SDS011;13725;51.170;4.442;2022-09-14T01:32:07;14.10;;;4.20;;
25922;SDS011;13725;51.170;4.442;2022-09-14T01:37:40;11.80;;;4.38;;
25922;SDS011;13725;51.170;4.442;2022-09-14T01:40:16;10.35;;;4.50;;
25922;SDS011;13725;51.170;4.442;2022-09-14T01:42:48;12.30;;;4.60;;
25922;SDS011;13725;51.170;4.442;2022-09-14T01:45:17;11.52;;;4.05;;
25922;SDS011;13725;51.170;4.442;2022-09-14T01:47:51;14.00;;;4.35;;
25922;SDS011;13725;51.170;4.442;2022-09-14T01:50:39;7.75;;;4.47;;
25922;SDS011;13725;51.170;4.442;2022-09-14T01:53:11;9.48;;;4.88;;
25922;SDS011;13725;51.170;4.442;2022-09-14T01:55:45;11.07;;;4.28;;
25922;SDS011;13725;51.170;4.442;2022-09-14T02:01:10;7.80;;;4.70;;
25922;SDS011;13725;51.170;4.442;2022-09-14T02:03:42;23.08;;;5.93;;
25922;SDS011;13725;51.170;4.442;2022-09-14T02:08:47;12.70;;;4.63;;
25922;SDS011;13725;51.170;4.442;2022-09-14T02:11:15;9.93;;;4.60;;
25922;SDS011;13725;51.170;4.442;2022-09-14T02:13:41;13.07;;;4.65;;
25922;SDS011;13725;51.170;4.442;2022-09-14T02:16:07;10.25;;;4.60;;
25922;SDS011;13725;51.170;4.442;2022-09-14T02:18:33;12.00;;;4.97;;
25922;SDS011;13725;51.170;4.442;2022-09-14T02:20:59;11.20;;;4.75;;
25922;SDS011;13725;51.170;4.442;2022-09-14T02:23:29;8.40;;;4.65;;
25922;SDS011;13725;51.170;4.442;2022-09-14T02:25:56;11.85;;;5.53;;
25922;SDS011;13725;51.170;4.442;2022-09-14T02:28:23;13.32;;;4.70;;
25922;SDS011;13725;51.170;4.442;2022-09-14T02:36:56;11.68;;;4.63;;
25922;SDS011;13725;51.170;4.442;2022-09-14T02:41:56;12.90;;;5.22;;
25922;SDS011;13725;51.170;4.442;2022-09-14T02:50:31;15.02;;;6.10;;
25922;SDS011;13725;51.170;4.442;2022-09-14T02:55:38;14.45;;;6.72;;
25922;SDS011;13725;51.170;4.442;2022-09-14T02:58:11;14.02;;;5.93;;
25922;SDS011;13725;51.170;4.442;2022-09-14T03:00:42;9.38;;;5.43;;
25922;SDS011;13725;51.170;4.442;2022-09-14T03:03:19;15.88;;;5.97;;
25922;SDS011;13725;51.170;4.442;2022-09-14T03:05:45;13.07;;;5.97;;
25922;SDS011;13725;51.170;4.442;2022-09-14T03:08:11;16.35;;;6.18;;
25922;SDS011;13725;51.170;4.442;2022-09-14T03:10:40;14.05;;;6.22;;
25922;SDS011;13725;51.170;4.442;2022-09-14T03:13:07;16.05;;;6.82;;
25922;SDS011;13725;51.170;4.442;2022-09-14T03:15:32;13.82;;;6.47;;
25922;SDS011;13725;51.170;4.442;2022-09-14T03:17:58;14.65;;;6.45;;
25922;SDS011;13725;51.170;4.442;2022-09-14T03:20:25;14.75;;;7.05;;
25922;SDS011;13725;51.170;4.442;2022-09-14T03:22:52;12.60;;;6.10;;
25922;SDS011;13725;51.170;4.442;2022-09-14T03:25:19;12.88;;;6.20;;
25922;SDS011;13725;51.170;4.442;2022-09-14T03:27:47;12.40;;;6.88;;
25922;SDS011;13725;51.170;4.442;2022-09-14T03:30:14;14.27;;;7.47;;
25922;SDS011;13725;51.170;4.442;2022-09-14T03:32:40;15.73;;;6.57;;
25922;SDS011;13725;51.170;4.442;2022-09-14T03:35:06;11.50;;;7.03;;
25922;SDS011;13725;51.170;4.442;2022-09-14T03:37:35;17.83;;;7.05;;
25922;SDS011;13725;51.170;4.442;2022-09-14T03:40:03;16.42;;;8.13;;
25922;SDS011;13725;51.170;4.442;2022-09-14T03:42:29;9.27;;;6.88;;
25922;SDS011;13725;51.170;4.442;2022-09-14T03:44:55;13.57;;;6.80;;
25922;SDS011;13725;51.170;4.442;2022-09-14T03:47:22;19.50;;;7.20;;
25922;SDS011;13725;51.170;4.442;2022-09-14T03:49:48;13.95;;;6.22;;
25922;SDS011;13725;51.170;4.442;2022-09-14T03:52:15;14.10;;;7.10;;
25922;SDS011;13725;51.170;4.442;2022-09-14T03:54:41;10.80;;;6.03;;
25922;SDS011;13725;51.170;4.442;2022-09-14T03:57:07;14.65;;;6.43;;
25922;SDS011;13725;51.170;4.442;2022-09-14T03:59:33;13.68;;;6.78;;
25922;SDS011;13725;51.170;4.442;2022-09-14T04:02:00;11.45;;;6.10;;
25922;SDS011;13725;51.170;4.442;2022-09-14T04:04:26;13.05;;;6.85;;
25922;SDS011;13725;51.170;4.442;2022-09-14T04:06:52;14.82;;;6.68;;
25922;SDS011;13725;51.170;4.442;2022-09-14T04:09:20;13.30;;;6.72;;
25922;SDS011;13725;51.170;4.442;2022-09-14T04:11:46;13.88;;;6.63;;
25922;SDS011;13725;51.170;4.442;2022-09-14T04:14:12;14.27;;;6.55;;
25922;SDS011;13725;51.170;4.442;2022-09-14T04:16:39;17.42;;;7.05;;
25922;SDS011;13725;51.170;4.442;2022-09-14T04:19:05;17.95;;;6.40;;
25922;SDS011;13725;51.170;4.442;2022-09-14T04:21:32;16.25;;;7.10;;
25922;SDS011;13725;51.170;4.442;2022-09-14T04:23:57;14.45;;;6.88;;
25922;SDS011;13725;51.170;4.442;2022-09-14T04:26:24;13.32;;;6.72;;
25922;SDS011;13725;51.170;4.442;2022-09-14T04:28:52;14.80;;;6.75;;
25922;SDS011;13725;51.170;4.442;2022-09-14T04:31:19;12.05;;;7.28;;
25922;SDS011;13725;51.170;4.442;2022-09-14T04:33:44;14.88;;;7.28;;
25922;SDS011;13725;51.170;4.442;2022-09-14T04:36:18;13.20;;;7.10;;
25922;SDS011;13725;51.170;4.442;2022-09-14T04:38:44;17.17;;;8.07;;
25922;SDS011;13725;51.170;4.442;2022-09-14T04:41:11;19.73;;;8.15;;
25922;SDS011;13725;51.170;4.442;2022-09-14T04:43:39;13.20;;;7.47;;
25922;SDS011;13725;51.170;4.442;2022-09-14T04:46:06;13.20;;;7.70;;
25922;SDS011;13725;51.170;4.442;2022-09-14T04:48:35;16.15;;;8.25;;
25922;SDS011;13725;51.170;4.442;2022-09-14T04:51:01;14.35;;;8.27;;
25922;SDS011;13725;51.170;4.442;2022-09-14T04:53:40;16.08;;;8.50;;
25922;SDS011;13725;51.170;4.442;2022-09-14T04:56:07;19.77;;;9.35;;
25922;SDS011;13725;51.170;4.442;2022-09-14T04:58:34;23.10;;;11.27;;
25922;SDS011;13725;51.170;4.442;2022-09-14T05:01:04;15.48;;;9.73;;
25922;SDS011;13725;51.170;4.442;2022-09-14T05:03:35;21.58;;;10.35;;
25922;SDS011;13725;51.170;4.442;2022-09-14T05:06:05;20.58;;;10.85;;
25922;SDS011;13725;51.170;4.442;2022-09-14T05:08:39;19.15;;;10.98;;
25922;SDS011;13725;51.170;4.442;2022-09-14T05:11:06;19.83;;;10.25;;
25922;SDS011;13725;51.170;4.442;2022-09-14T05:13:33;19.48;;;11.60;;
25922;SDS011;13725;51.170;4.442;2022-09-14T05:16:06;17.95;;;10.48;;
25922;SDS011;13725;51.170;4.442;2022-09-14T05:18:33;15.70;;;10.95;;
25922;SDS011;13725;51.170;4.442;2022-09-14T05:21:00;17.63;;;10.20;;
25922;SDS011;13725;51.170;4.442;2022-09-14T05:23:29;17.90;;;10.98;;
25922;SDS011;13725;51.170;4.442;2022-09-14T05:25:56;14.85;;;10.55;;
25922;SDS011;13725;51.170;4.442;2022-09-14T05:28:22;17.35;;;9.82;;
25922;SDS011;13725;51.170;4.442;2022-09-14T05:30:48;19.55;;;10.02;;
25922;SDS011;13725;51.170;4.442;2022-09-14T05:33:14;17.70;;;10.50;;
25922;SDS011;13725;51.170;4.442;2022-09-14T05:35:40;17.15;;;10.52;;
25922;SDS011;13725;51.170;4.442;2022-09-14T05:38:06;16.25;;;10.25;;
25922;SDS011;13725;51.170;4.442;2022-09-14T05:40:31;19.55;;;10.65;;
25922;SDS011;13725;51.170;4.442;2022-09-14T05:42:57;20.33;;;9.95;;
25922;SDS011;13725;51.170;4.442;2022-09-14T05:45:23;19.67;;;10.50;;
25922;SDS011;13725;51.170;4.442;2022-09-14T05:47:49;18.35;;;10.35;;
25922;SDS011;13725;51.170;4.442;2022-09-14T05:50:14;15.40;;;10.00;;
25922;SDS011;13725;51.170;4.442;2022-09-14T05:52:40;17.67;;;10.07;;
25922;SDS011;13725;51.170;4.442;2022-09-14T05:55:06;17.40;;;9.82;;
25922;SDS011;13725;51.170;4.442;2022-09-14T05:57:32;17.33;;;8.98;;
25922;SDS011;13725;51.170;4.442;2022-09-14T05:59:58;15.77;;;9.80;;
25922;SDS011;13725;51.170;4.442;2022-09-14T06:02:23;18.48;;;9.70;;
25922;SDS011;13725;51.170;4.442;2022-09-14T06:04:49;21.35;;;9.43;;
25922;SDS011;13725;51.170;4.442;2022-09-14T06:07:15;18.95;;;10.60;;
25922;SDS011;13725;51.170;4.442;2022-09-14T06:09:41;22.30;;;9.55;;
25922;SDS011;13725;51.170;4.442;2022-09-14T06:12:07;16.83;;;9.68;;
25922;SDS011;13725;51.170;4.442;2022-09-14T06:14:32;19.88;;;8.93;;
25922;SDS011;13725;51.170;4.442;2022-09-14T06:16:58;17.30;;;8.73;;
25922;SDS011;13725;51.170;4.442;2022-09-14T06:19:24;16.52;;;8.43;;
25922;SDS011;13725;51.170;4.442;2022-09-14T06:21:50;16.42;;;7.88;;
25922;SDS011;13725;51.170;4.442;2022-09-14T06:24:16;19.08;;;9.00;;
25922;SDS011;13725;51.170;4.442;2022-09-14T06:26:44;21.55;;;8.95;;
25922;SDS011;13725;51.170;4.442;2022-09-14T06:29:10;19.17;;;9.25;;
25922;SDS011;13725;51.170;4.442;2022-09-14T06:31:35;19.13;;;8.35;;
25922;SDS011;13725;51.170;4.442;2022-09-14T06:34:02;15.73;;;8.48;;
25922;SDS011;13725;51.170;4.442;2022-09-14T06:36:28;19.58;;;8.30;;
25922;SDS011;13725;51.170;4.442;2022-09-14T06:38:54;17.35;;;8.35;;
25922;SDS011;13725;51.170;4.442;2022-09-14T06:41:23;17.35;;;8.18;;
25922;SDS011;13725;51.170;4.442;2022-09-14T06:43:54;14.52;;;8.48;;
25922;SDS011;13725;51.170;4.442;2022-09-14T06:46:22;16.42;;;7.72;;
25922;SDS011;13725;51.170;4.442;2022-09-14T06:48:51;16.00;;;8.00;;
25922;SDS011;13725;51.170;4.442;2022-09-14T06:53:49;14.40;;;8.55;;
25922;SDS011;13725;51.170;4.442;2022-09-14T06:56:16;17.13;;;9.20;;
25922;SDS011;13725;51.170;4.442;2022-09-14T06:58:42;20.83;;;8.20;;
25922;SDS011;13725;51.170;4.442;2022-09-14T07:01:12;15.25;;;7.88;;
25922;SDS011;13725;51.170;4.442;2022-09-14T07:03:41;18.60;;;8.80;;
25922;SDS011;13725;51.170;4.442;2022-09-14T07:06:15;20.23;;;9.85;;
25922;SDS011;13725;51.170;4.442;2022-09-14T07:08:46;18.20;;;8.45;;
25922;SDS011;13725;51.170;4.442;2022-09-14T07:11:13;18.33;;;9.20;;
25922;SDS011;13725;51.170;4.442;2022-09-14T07:13:41;17.05;;;8.10;;
25922;SDS011;13725;51.170;4.442;2022-09-14T07:16:08;16.30;;;8.20;;
25922;SDS011;13725;51.170;4.442;2022-09-14T07:18:34;19.52;;;8.82;;
25922;SDS011;13725;51.170;4.442;2022-09-14T07:21:05;21.10;;;9.50;;
25922;SDS011;13725;51.170;4.442;2022-09-14T07:23:31;20.50;;;9.77;;
25922;SDS011;13725;51.170;4.442;2022-09-14T07:26:08;16.58;;;9.05;;
25922;SDS011;13725;51.170;4.442;2022-09-14T07:28:36;14.63;;;9.93;;
25922;SDS011;13725;51.170;4.442;2022-09-14T07:31:03;16.90;;;9.88;;
25922;SDS011;13725;51.170;4.442;2022-09-14T07:33:37;18.30;;;10.30;;
25922;SDS011;13725;51.170;4.442;2022-09-14T07:36:06;17.40;;;10.68;;
25922;SDS011;13725;51.170;4.442;2022-09-14T07:38:34;16.08;;;10.65;;
25922;SDS011;13725;51.170;4.442;2022-09-14T07:40:59;20.55;;;10.73;;
25922;SDS011;13725;51.170;4.442;2022-09-14T07:43:26;22.85;;;10.55;;
25922;SDS011;13725;51.170;4.442;2022-09-14T07:45:52;15.48;;;10.38;;
25922;SDS011;13725;51.170;4.442;2022-09-14T07:48:18;23.02;;;10.77;;
25922;SDS011;13725;51.170;4.442;2022-09-14T07:50:45;27.30;;;11.52;;
25922;SDS011;13725;51.170;4.442;2022-09-14T07:53:11;18.33;;;10.38;;
25922;SDS011;13725;51.170;4.442;2022-09-14T07:55:38;21.92;;;11.25;;
25922;SDS011;13725;51.170;4.442;2022-09-14T07:58:05;16.83;;;10.60;;
25922;SDS011;13725;51.170;4.442;2022-09-14T08:00:31;17.73;;;10.00;;
25922;SDS011;13725;51.170;4.442;2022-09-14T08:02:57;16.27;;;9.70;;
25922;SDS011;13725;51.170;4.442;2022-09-14T08:05:24;17.45;;;9.48;;
25922;SDS011;13725;51.170;4.442;2022-09-14T08:07:53;15.43;;;9.57;;
25922;SDS011;13725;51.170;4.442;2022-09-14T08:10:20;19.60;;;9.57;;
25922;SDS011;13725;51.170;4.442;2022-09-14T08:12:50;18.42;;;9.10;;
25922;SDS011;13725;51.170;4.442;2022-09-14T08:15:17;12.68;;;8.70;;
25922;SDS011;13725;51.170;4.442;2022-09-14T08:17:44;12.93;;;8.80;;
25922;SDS011;13725;51.170;4.442;2022-09-14T08:20:10;17.58;;;9.60;;
25922;SDS011;13725;51.170;4.442;2022-09-14T08:22:36;15.73;;;8.95;;
25922;SDS011;13725;51.170;4.442;2022-09-14T08:25:03;14.10;;;8.98;;
25922;SDS011;13725;51.170;4.442;2022-09-14T08:27:29;16.70;;;9.05;;
25922;SDS011;13725;51.170;4.442;2022-09-14T08:29:55;15.85;;;8.77;;
25922;SDS011;13725;51.170;4.442;2022-09-14T08:32:21;10.90;;;8.10;;
25922;SDS011;13725;51.170;4.442;2022-09-14T08:34:46;16.85;;;8.68;;
25922;SDS011;13725;51.170;4.442;2022-09-14T08:37:13;14.73;;;8.70;;
25922;SDS011;13725;51.170;4.442;2022-09-14T08:39:39;14.55;;;8.77;;
25922;SDS011;13725;51.170;4.442;2022-09-14T08:42:07;11.75;;;8.27;;
25922;SDS011;13725;51.170;4.442;2022-09-14T08:44:48;14.38;;;8.70;;
25922;SDS011;13725;51.170;4.442;2022-09-14T08:47:24;11.10;;;9.07;;
25922;SDS011;13725;51.170;4.442;2022-09-14T08:52:39;12.77;;;9.20;;
25922;SDS011;13725;51.170;4.442;2022-09-14T08:58:05;15.02;;;9.90;;
25922;SDS011;13725;51.170;4.442;2022-09-14T09:00:59;13.10;;;8.77;;
25922;SDS011;13725;51.170;4.442;2022-09-14T09:06:18;12.82;;;8.68;;
25922;SDS011;13725;51.170;4.442;2022-09-14T09:11:55;13.07;;;8.35;;
25922;SDS011;13725;51.170;4.442;2022-09-14T09:17:37;13.65;;;8.00;;
25922;SDS011;13725;51.170;4.442;2022-09-14T09:25:25;14.90;;;9.50;;
25922;SDS011;13725;51.170;4.442;2022-09-14T09:28:02;14.77;;;9.77;;
25922;SDS011;13725;51.170;4.442;2022-09-14T09:30:34;14.45;;;9.13;;
25922;SDS011;13725;51.170;4.442;2022-09-14T09:33:00;12.15;;;8.90;;
25922;SDS011;13725;51.170;4.442;2022-09-14T09:35:41;16.30;;;8.75;;
25922;SDS011;13725;51.170;4.442;2022-09-14T09:38:15;13.90;;;8.55;;
25922;SDS011;13725;51.170;4.442;2022-09-14T09:40:48;14.07;;;9.18;;
25922;SDS011;13725;51.170;4.442;2022-09-14T09:43:24;14.80;;;9.55;;
25922;SDS011;13725;51.170;4.442;2022-09-14T09:45:54;11.32;;;8.80;;
25922;SDS011;13725;51.170;4.442;2022-09-14T09:51:10;14.40;;;10.15;;
25922;SDS011;13725;51.170;4.442;2022-09-14T09:53:45;13.25;;;10.10;;
25922;SDS011;13725;51.170;4.442;2022-09-14T09:56:17;14.65;;;10.27;;
25922;SDS011;13725;51.170;4.442;2022-09-14T09:58:45;15.20;;;10.02;;
25922;SDS011;13725;51.170;4.442;2022-09-14T10:01:20;16.92;;;10.80;;
25922;SDS011;13725;51.170;4.442;2022-09-14T10:04:26;15.95;;;9.77;;
25922;SDS011;13725;51.170;4.442;2022-09-14T10:06:54;14.45;;;10.07;;
25922;SDS011;13725;51.170;4.442;2022-09-14T10:09:25;18.92;;;10.35;;
25922;SDS011;13725;51.170;4.442;2022-09-14T10:11:56;14.85;;;8.80;;
25922;SDS011;13725;51.170;4.442;2022-09-14T10:14:30;15.13;;;9.88;;
25922;SDS011;13725;51.170;4.442;2022-09-14T10:17:04;12.85;;;9.27;;
25922;SDS011;13725;51.170;4.442;2022-09-14T10:19:39;12.68;;;9.27;;
25922;SDS011;13725;51.170;4.442;2022-09-14T10:22:27;15.70;;;9.48;;
25922;SDS011;13725;51.170;4.442;2022-09-14T10:24:58;13.43;;;9.52;;
25922;SDS011;13725;51.170;4.442;2022-09-14T10:27:37;13.38;;;9.13;;
25922;SDS011;13725;51.170;4.442;2022-09-14T10:30:09;15.95;;;9.82;;
25922;SDS011;13725;51.170;4.442;2022-09-14T10:32:40;12.35;;;8.98;;
25922;SDS011;13725;51.170;4.442;2022-09-14T10:35:13;13.13;;;9.82;;
25922;SDS011;13725;51.170;4.442;2022-09-14T10:40:18;12.05;;;9.18;;
25922;SDS011;13725;51.170;4.442;2022-09-14T10:45:38;12.02;;;8.57;;
25922;SDS011;13725;51.170;4.442;2022-09-14T10:53:30;8.18;;;5.95;;
25922;SDS011;13725;51.170;4.442;2022-09-14T10:56:08;11.18;;;5.60;;
25922;SDS011;13725;51.170;4.442;2022-09-14T11:07:13;2.60;;;1.60;;
25922;SDS011;13725;51.170;4.442;2022-09-14T11:09:43;3.92;;;1.58;;
25922;SDS011;13725;51.170;4.442;2022-09-14T11:20:49;1.80;;;0.85;;
25922;SDS011;13725;51.170;4.442;2022-09-14T11:28:53;2.65;;;1.10;;
25922;SDS011;13725;51.170;4.442;2022-09-14T11:34:34;3.63;;;1.58;;
25922;SDS011;13725;51.170;4.442;2022-09-14T11:37:17;3.30;;;1.95;;
25922;SDS011;13725;51.170;4.442;2022-09-14T11:39:48;2.35;;;1.95;;
25922;SDS011;13725;51.170;4.442;2022-09-14T11:42:31;4.60;;;2.20;;
25922;SDS011;13725;51.170;4.442;2022-09-14T11:45:02;3.63;;;2.30;;
25922;SDS011;13725;51.170;4.442;2022-09-14T11:47:36;4.90;;;2.60;;
25922;SDS011;13725;51.170;4.442;2022-09-14T11:52:47;4.38;;;2.20;;
25922;SDS011;13725;51.170;4.442;2022-09-14T11:55:27;3.03;;;2.20;;
25922;SDS011;13725;51.170;4.442;2022-09-14T11:57:54;3.60;;;2.72;;
25922;SDS011;13725;51.170;4.442;2022-09-14T12:05:40;2.88;;;2.60;;
25922;SDS011;13725;51.170;4.442;2022-09-14T12:08:34;5.00;;;3.05;;
25922;SDS011;13725;51.170;4.442;2022-09-14T12:11:03;5.10;;;3.25;;
25922;SDS011;13725;51.170;4.442;2022-09-14T12:14:11;4.85;;;3.63;;
25922;SDS011;13725;51.170;4.442;2022-09-14T12:17:01;7.85;;;3.90;;
25922;SDS011;13725;51.170;4.442;2022-09-14T12:19:27;6.93;;;4.00;;
25922;SDS011;13725;51.170;4.442;2022-09-14T12:21:54;4.97;;;3.80;;
25922;SDS011;13725;51.170;4.442;2022-09-14T12:24:20;6.22;;;4.20;;
25922;SDS011;13725;51.170;4.442;2022-09-14T12:26:47;5.80;;;4.85;;
25922;SDS011;13725;51.170;4.442;2022-09-14T12:29:34;4.55;;;3.80;;
25922;SDS011;13725;51.170;4.442;2022-09-14T12:32:00;4.65;;;3.92;;
25922;SDS011;13725;51.170;4.442;2022-09-14T12:34:29;4.97;;;3.63;;
25922;SDS011;13725;51.170;4.442;2022-09-14T12:37:02;5.85;;;4.05;;
25922;SDS011;13725;51.170;4.442;2022-09-14T12:42:53;6.38;;;4.13;;
25922;SDS011;13725;51.170;4.442;2022-09-14T12:51:12;5.80;;;4.40;;
25922;SDS011;13725;51.170;4.442;2022-09-14T12:53:45;4.55;;;3.97;;
25922;SDS011;13725;51.170;4.442;2022-09-14T12:56:30;5.22;;;3.95;;
25922;SDS011;13725;51.170;4.442;2022-09-14T13:04:33;5.53;;;3.67;;
25922;SDS011;13725;51.170;4.442;2022-09-14T13:07:01;4.88;;;3.72;;
25922;SDS011;13725;51.170;4.442;2022-09-14T13:09:31;4.60;;;4.07;;
25922;SDS011;13725;51.170;4.442;2022-09-14T13:12:02;6.53;;;4.25;;
25922;SDS011;13725;51.170;4.442;2022-09-14T13:15:06;6.25;;;4.63;;
25922;SDS011;13725;51.170;4.442;2022-09-14T13:17:29;6.07;;;4.85;;
25922;SDS011;13725;51.170;4.442;2022-09-14T13:19:55;5.68;;;4.80;;
25922;SDS011;13725;51.170;4.442;2022-09-14T13:24:56;7.50;;;5.10;;
25922;SDS011;13725;51.170;4.442;2022-09-14T13:27:34;7.10;;;4.90;;
25922;SDS011;13725;51.170;4.442;2022-09-14T13:30:06;9.57;;;5.10;;
25922;SDS011;13725;51.170;4.442;2022-09-14T13:32:39;7.32;;;4.47;;
25922;SDS011;13725;51.170;4.442;2022-09-14T13:35:14;5.45;;;4.80;;
25922;SDS011;13725;51.170;4.442;2022-09-14T13:37:42;8.50;;;4.00;;
25922;SDS011;13725;51.170;4.442;2022-09-14T13:40:09;8.27;;;3.90;;
25922;SDS011;13725;51.170;4.442;2022-09-14T13:42:36;3.85;;;3.22;;
25922;SDS011;13725;51.170;4.442;2022-09-14T13:45:04;7.03;;;3.90;;
25922;SDS011;13725;51.170;4.442;2022-09-14T13:47:30;7.55;;;3.83;;
25922;SDS011;13725;51.170;4.442;2022-09-14T13:49:56;6.30;;;4.18;;
25922;SDS011;13725;51.170;4.442;2022-09-14T13:54:52;6.97;;;4.85;;
25922;SDS011;13725;51.170;4.442;2022-09-14T13:57:23;8.52;;;5.53;;
25922;SDS011;13725;51.170;4.442;2022-09-14T14:02:49;9.98;;;6.03;;
25922;SDS011;13725;51.170;4.442;2022-09-14T14:05:50;9.27;;;6.68;;
25922;SDS011;13725;51.170;4.442;2022-09-14T14:08:20;9.57;;;6.65;;
25922;SDS011;13725;51.170;4.442;2022-09-14T14:10:52;11.90;;;7.07;;
25922;SDS011;13725;51.170;4.442;2022-09-14T14:13:26;13.77;;;7.93;;
25922;SDS011;13725;51.170;4.442;2022-09-14T14:16:19;10.23;;;8.27;;
25922;SDS011;13725;51.170;4.442;2022-09-14T14:18:53;11.30;;;8.10;;
25922;SDS011;13725;51.170;4.442;2022-09-14T14:21:23;11.32;;;7.65;;
25922;SDS011;13725;51.170;4.442;2022-09-14T14:26:48;8.90;;;7.03;;
25922;SDS011;13725;51.170;4.442;2022-09-14T14:29:15;15.77;;;7.43;;
25922;SDS011;13725;51.170;4.442;2022-09-14T14:31:42;9.10;;;7.22;;
25922;SDS011;13725;51.170;4.442;2022-09-14T14:36:47;13.73;;;8.27;;
25922;SDS011;13725;51.170;4.442;2022-09-14T14:39:18;10.93;;;6.88;;
25922;SDS011;13725;51.170;4.442;2022-09-14T14:41:45;10.77;;;8.38;;
25922;SDS011;13725;51.170;4.442;2022-09-14T14:44:14;11.23;;;7.55;;
25922;SDS011;13725;51.170;4.442;2022-09-14T14:46:43;14.77;;;8.57;;
25922;SDS011;13725;51.170;4.442;2022-09-14T14:49:10;14.40;;;7.88;;
25922;SDS011;13725;51.170;4.442;2022-09-14T14:51:37;14.63;;;7.82;;
25922;SDS011;13725;51.170;4.442;2022-09-14T14:54:03;15.82;;;7.90;;
25922;SDS011;13725;51.170;4.442;2022-09-14T14:56:31;11.73;;;8.02;;
25922;SDS011;13725;51.170;4.442;2022-09-14T14:58:57;17.00;;;8.77;;
25922;SDS011;13725;51.170;4.442;2022-09-14T15:01:22;11.18;;;8.30;;
25922;SDS011;13725;51.170;4.442;2022-09-14T15:03:48;10.98;;;7.80;;
25922;SDS011;13725;51.170;4.442;2022-09-14T15:06:17;13.77;;;8.80;;
25922;SDS011;13725;51.170;4.442;2022-09-14T15:08:45;14.10;;;8.52;;
25922;SDS011;13725;51.170;4.442;2022-09-14T15:11:17;13.98;;;8.80;;
25922;SDS011;13725;51.170;4.442;2022-09-14T15:13:44;13.73;;;8.93;;
25922;SDS011;13725;51.170;4.442;2022-09-14T15:16:10;15.60;;;9.85;;
25922;SDS011;13725;51.170;4.442;2022-09-14T15:18:36;11.80;;;9.13;;
25922;SDS011;13725;51.170;4.442;2022-09-14T15:21:02;14.63;;;9.98;;
25922;SDS011;13725;51.170;4.442;2022-09-14T15:23:28;16.60;;;10.02;;
25922;SDS011;13725;51.170;4.442;2022-09-14T15:25:55;13.18;;;9.60;;
25922;SDS011;13725;51.170;4.442;2022-09-14T15:28:20;13.98;;;9.80;;
25922;SDS011;13725;51.170;4.442;2022-09-14T15:30:46;15.25;;;10.38;;
25922;SDS011;13725;51.170;4.442;2022-09-14T15:33:12;11.15;;;8.55;;
25922;SDS011;13725;51.170;4.442;2022-09-14T15:35:38;11.77;;;8.25;;
25922;SDS011;13725;51.170;4.442;2022-09-14T15:38:04;11.57;;;8.15;;
25922;SDS011;13725;51.170;4.442;2022-09-14T15:40:31;14.95;;;8.52;;
25922;SDS011;13725;51.170;4.442;2022-09-14T15:42:57;13.00;;;8.27;;
25922;SDS011;13725;51.170;4.442;2022-09-14T15:45:22;11.15;;;8.48;;
25922;SDS011;13725;51.170;4.442;2022-09-14T15:47:48;13.43;;;8.68;;
25922;SDS011;13725;51.170;4.442;2022-09-14T15:50:14;11.75;;;8.80;;
25922;SDS011;13725;51.170;4.442;2022-09-14T15:52:40;13.88;;;9.00;;
25922;SDS011;13725;51.170;4.442;2022-09-14T15:55:06;12.10;;;8.75;;
25922;SDS011;13725;51.170;4.442;2022-09-14T15:57:33;13.88;;;8.43;;
25922;SDS011;13725;51.170;4.442;2022-09-14T15:59:59;12.13;;;8.38;;
25922;SDS011;13725;51.170;4.442;2022-09-14T16:06:13;16.58;;;9.73;;
25922;SDS011;13725;51.170;4.442;2022-09-14T16:08:39;15.07;;;9.60;;
25922;SDS011;13725;51.170;4.442;2022-09-14T16:11:06;11.50;;;8.82;;
25922;SDS011;13725;51.170;4.442;2022-09-14T16:13:33;14.60;;;10.52;;
25922;SDS011;13725;51.170;4.442;2022-09-14T16:16:05;14.32;;;9.30;;
25922;SDS011;13725;51.170;4.442;2022-09-14T16:18:35;13.07;;;9.88;;
25922;SDS011;13725;51.170;4.442;2022-09-14T16:21:05;13.88;;;9.65;;
25922;SDS011;13725;51.170;4.442;2022-09-14T16:23:34;17.90;;;9.93;;
25922;SDS011;13725;51.170;4.442;2022-09-14T16:26:09;15.25;;;9.80;;
25922;SDS011;13725;51.170;4.442;2022-09-14T16:28:37;15.85;;;9.40;;
25922;SDS011;13725;51.170;4.442;2022-09-14T16:31:05;15.52;;;10.55;;
25922;SDS011;13725;51.170;4.442;2022-09-14T16:33:39;15.18;;;10.23;;
25922;SDS011;13725;51.170;4.442;2022-09-14T16:36:11;15.15;;;10.73;;
25922;SDS011;13725;51.170;4.442;2022-09-14T16:38:41;20.75;;;12.80;;
25922;SDS011;13725;51.170;4.442;2022-09-14T16:41:07;20.70;;;12.65;;
25922;SDS011;13725;51.170;4.442;2022-09-14T16:43:35;21.55;;;13.40;;
25922;SDS011;13725;51.170;4.442;2022-09-14T16:51:01;20.48;;;12.85;;
25922;SDS011;13725;51.170;4.442;2022-09-14T16:53:28;25.55;;;14.38;;
25922;SDS011;13725;51.170;4.442;2022-09-14T16:56:05;25.88;;;13.60;;
25922;SDS011;13725;51.170;4.442;2022-09-14T16:58:33;24.48;;;15.18;;
25922;SDS011;13725;51.170;4.442;2022-09-14T17:01:03;23.60;;;14.30;;
25922;SDS011;13725;51.170;4.442;2022-09-14T17:03:31;24.88;;;14.18;;
25922;SDS011;13725;51.170;4.442;2022-09-14T17:05:59;24.77;;;13.88;;
25922;SDS011;13725;51.170;4.442;2022-09-14T17:08:29;24.20;;;14.65;;
25922;SDS011;13725;51.170;4.442;2022-09-14T17:10:55;26.02;;;14.95;;
25922;SDS011;13725;51.170;4.442;2022-09-14T17:13:21;22.88;;;13.95;;
25922;SDS011;13725;51.170;4.442;2022-09-14T17:15:47;24.92;;;14.80;;
25922;SDS011;13725;51.170;4.442;2022-09-14T17:18:13;22.70;;;15.10;;
25922;SDS011;13725;51.170;4.442;2022-09-14T17:20:39;22.02;;;15.35;;